sensor_id;sensor_type;location;lat;lon;timestamp;P1;durP1;ratioP1;P2;durP2;ratioP2
69325;SDS011;56471;53.508;49.252;2022-09-09T00:04:14;3.20;;;1.90;;
69325;SDS011;56471;53.508;49.252;2022-09-09T00:09:39;3.65;;;1.58;;
69325;SDS011;56471;53.508;49.252;2022-09-09T00:12:11;2.40;;;1.67;;
69325;SDS011;56471;53.508;49.252;2022-09-09T00:17:16;1.70;;;1.60;;
69325;SDS011;56471;53.508;49.252;2022-09-09T00:19:56;1.75;;;1.63;;
69325;SDS011;56471;53.508;49.252;2022-09-09T00:22:36;1.60;;;1.50;;
69325;SDS011;56471;53.508;49.252;2022-09-09T00:27:45;2.35;;;1.40;;
69325;SDS011;56471;53.508;49.252;2022-09-09T00:30:20;2.33;;;1.50;;
69325;SDS011;56471;53.508;49.252;2022-09-09T00:32:53;1.65;;;1.40;;
69325;SDS011;56471;53.508;49.252;2022-09-09T00:35:31;2.92;;;1.50;;
69325;SDS011;56471;53.508;49.252;2022-09-09T00:38:02;421.05;;;199.23;;
69325;SDS011;56471;53.508;49.252;2022-09-09T00:40:50;356.10;;;166.75;;
69325;SDS011;56471;53.508;49.252;2022-09-09T00:51:54;10.43;;;4.97;;
69325;SDS011;56471;53.508;49.252;2022-09-09T00:57:32;3.97;;;2.22;;
69325;SDS011;56471;53.508;49.252;2022-09-09T01:02:39;2.58;;;1.83;;
69325;SDS011;56471;53.508;49.252;2022-09-09T01:05:12;2.85;;;1.70;;
69325;SDS011;56471;53.508;49.252;2022-09-09T01:07:46;2.67;;;1.60;;
69325;SDS011;56471;53.508;49.252;2022-09-09T01:13:25;2.47;;;1.77;;
69325;SDS011;56471;53.508;49.252;2022-09-09T01:15:55;2.67;;;1.70;;
69325;SDS011;56471;53.508;49.252;2022-09-09T01:18:26;3.78;;;1.75;;
69325;SDS011;56471;53.508;49.252;2022-09-09T01:26:45;2.00;;;1.70;;
69325;SDS011;56471;53.508;49.252;2022-09-09T01:29:12;3.53;;;1.67;;
69325;SDS011;56471;53.508;49.252;2022-09-09T01:31:51;2.63;;;1.80;;
69325;SDS011;56471;53.508;49.252;2022-09-09T01:34:23;2.10;;;1.90;;
69325;SDS011;56471;53.508;49.252;2022-09-09T01:36:57;2.10;;;1.50;;
69325;SDS011;56471;53.508;49.252;2022-09-09T01:39:27;1.70;;;1.60;;
69325;SDS011;56471;53.508;49.252;2022-09-09T01:41:53;2.33;;;1.65;;
69325;SDS011;56471;53.508;49.252;2022-09-09T01:44:21;3.38;;;1.70;;
69325;SDS011;56471;53.508;49.252;2022-09-09T01:46:47;2.03;;;1.83;;
69325;SDS011;56471;53.508;49.252;2022-09-09T01:49:13;2.22;;;1.83;;
69325;SDS011;56471;53.508;49.252;2022-09-09T01:51:39;2.00;;;1.85;;
69325;SDS011;56471;53.508;49.252;2022-09-09T01:54:07;2.05;;;1.80;;
69325;SDS011;56471;53.508;49.252;2022-09-09T01:56:43;2.10;;;1.67;;
69325;SDS011;56471;53.508;49.252;2022-09-09T02:08:20;2.72;;;2.00;;
69325;SDS011;56471;53.508;49.252;2022-09-09T02:13:39;6.05;;;2.15;;
69325;SDS011;56471;53.508;49.252;2022-09-09T02:21:37;2.30;;;2.08;;
69325;SDS011;56471;53.508;49.252;2022-09-09T02:24:06;2.10;;;1.90;;
69325;SDS011;56471;53.508;49.252;2022-09-09T02:26:35;1.98;;;1.80;;
69325;SDS011;56471;53.508;49.252;2022-09-09T02:29:08;3.53;;;2.00;;
69325;SDS011;56471;53.508;49.252;2022-09-09T02:31:37;2.20;;;2.00;;
69325;SDS011;56471;53.508;49.252;2022-09-09T02:34:04;2.00;;;1.80;;
69325;SDS011;56471;53.508;49.252;2022-09-09T02:36:33;2.47;;;2.03;;
69325;SDS011;56471;53.508;49.252;2022-09-09T02:39:01;3.55;;;2.03;;
69325;SDS011;56471;53.508;49.252;2022-09-09T02:41:35;4.22;;;1.83;;
69325;SDS011;56471;53.508;49.252;2022-09-09T02:44:09;2.10;;;1.90;;
69325;SDS011;56471;53.508;49.252;2022-09-09T02:47:00;3.22;;;1.90;;
69325;SDS011;56471;53.508;49.252;2022-09-09T02:49:43;2.00;;;1.80;;
69325;SDS011;56471;53.508;49.252;2022-09-09T02:52:31;2.10;;;1.90;;
69325;SDS011;56471;53.508;49.252;2022-09-09T02:55:23;2.60;;;1.90;;
69325;SDS011;56471;53.508;49.252;2022-09-09T02:58:04;2.67;;;1.90;;
69325;SDS011;56471;53.508;49.252;2022-09-09T03:00:32;3.40;;;1.98;;
69325;SDS011;56471;53.508;49.252;2022-09-09T03:03:01;2.33;;;2.13;;
69325;SDS011;56471;53.508;49.252;2022-09-09T03:05:31;2.28;;;1.95;;
69325;SDS011;56471;53.508;49.252;2022-09-09T03:07:58;2.00;;;1.80;;
69325;SDS011;56471;53.508;49.252;2022-09-09T03:10:24;2.10;;;1.90;;
69325;SDS011;56471;53.508;49.252;2022-09-09T03:12:49;2.30;;;2.10;;
69325;SDS011;56471;53.508;49.252;2022-09-09T03:15:15;2.88;;;1.80;;
69325;SDS011;56471;53.508;49.252;2022-09-09T03:17:41;1.73;;;1.60;;
69325;SDS011;56471;53.508;49.252;2022-09-09T03:20:08;2.50;;;2.00;;
69325;SDS011;56471;53.508;49.252;2022-09-09T03:22:34;2.30;;;2.00;;
69325;SDS011;56471;53.508;49.252;2022-09-09T03:25:00;2.78;;;2.20;;
69325;SDS011;56471;53.508;49.252;2022-09-09T03:27:28;2.38;;;2.08;;
69325;SDS011;56471;53.508;49.252;2022-09-09T03:29:54;3.55;;;2.50;;
69325;SDS011;56471;53.508;49.252;2022-09-09T03:32:21;2.38;;;2.10;;
69325;SDS011;56471;53.508;49.252;2022-09-09T03:34:48;2.40;;;2.20;;
69325;SDS011;56471;53.508;49.252;2022-09-09T03:37:17;2.70;;;2.28;;
69325;SDS011;56471;53.508;49.252;2022-09-09T03:39:43;2.78;;;2.25;;
69325;SDS011;56471;53.508;49.252;2022-09-09T03:42:12;2.75;;;2.28;;
69325;SDS011;56471;53.508;49.252;2022-09-09T03:44:39;2.85;;;2.38;;
69325;SDS011;56471;53.508;49.252;2022-09-09T03:47:07;3.85;;;2.65;;
69325;SDS011;56471;53.508;49.252;2022-09-09T03:49:33;3.72;;;2.25;;
69325;SDS011;56471;53.508;49.252;2022-09-09T03:51:59;3.70;;;2.40;;
69325;SDS011;56471;53.508;49.252;2022-09-09T03:54:26;2.92;;;2.50;;
69325;SDS011;56471;53.508;49.252;2022-09-09T03:56:52;4.25;;;2.60;;
69325;SDS011;56471;53.508;49.252;2022-09-09T03:59:18;3.70;;;2.72;;
69325;SDS011;56471;53.508;49.252;2022-09-09T04:01:45;3.80;;;2.72;;
69325;SDS011;56471;53.508;49.252;2022-09-09T04:04:12;3.80;;;2.90;;
69325;SDS011;56471;53.508;49.252;2022-09-09T04:06:38;5.20;;;2.80;;
69325;SDS011;56471;53.508;49.252;2022-09-09T04:09:04;5.30;;;2.47;;
69325;SDS011;56471;53.508;49.252;2022-09-09T04:11:29;3.15;;;2.50;;
69325;SDS011;56471;53.508;49.252;2022-09-09T04:13:55;2.80;;;2.55;;
69325;SDS011;56471;53.508;49.252;2022-09-09T04:16:21;5.40;;;2.80;;
69325;SDS011;56471;53.508;49.252;2022-09-09T04:18:47;3.50;;;2.40;;
69325;SDS011;56471;53.508;49.252;2022-09-09T04:21:13;3.97;;;2.50;;
69325;SDS011;56471;53.508;49.252;2022-09-09T04:23:40;3.55;;;2.33;;
69325;SDS011;56471;53.508;49.252;2022-09-09T04:26:06;3.25;;;2.70;;
69325;SDS011;56471;53.508;49.252;2022-09-09T04:28:33;3.63;;;2.55;;
69325;SDS011;56471;53.508;49.252;2022-09-09T04:31:19;2.45;;;2.22;;
69325;SDS011;56471;53.508;49.252;2022-09-09T04:33:48;6.80;;;2.50;;
69325;SDS011;56471;53.508;49.252;2022-09-09T04:36:14;3.17;;;2.38;;
69325;SDS011;56471;53.508;49.252;2022-09-09T04:38:41;3.35;;;2.08;;
69325;SDS011;56471;53.508;49.252;2022-09-09T04:41:09;4.82;;;2.33;;
69325;SDS011;56471;53.508;49.252;2022-09-09T04:43:36;2.40;;;2.20;;
69325;SDS011;56471;53.508;49.252;2022-09-09T04:46:05;2.85;;;2.20;;
69325;SDS011;56471;53.508;49.252;2022-09-09T04:48:31;3.15;;;2.13;;
69325;SDS011;56471;53.508;49.252;2022-09-09T04:50:58;3.25;;;2.17;;
69325;SDS011;56471;53.508;49.252;2022-09-09T04:53:26;2.70;;;2.15;;
69325;SDS011;56471;53.508;49.252;2022-09-09T04:56:14;2.40;;;2.20;;
69325;SDS011;56471;53.508;49.252;2022-09-09T04:58:39;2.50;;;2.30;;
69325;SDS011;56471;53.508;49.252;2022-09-09T05:01:13;2.72;;;2.30;;
69325;SDS011;56471;53.508;49.252;2022-09-09T05:03:42;3.03;;;2.40;;
69325;SDS011;56471;53.508;49.252;2022-09-09T05:06:11;4.82;;;2.42;;
69325;SDS011;56471;53.508;49.252;2022-09-09T05:08:38;2.58;;;2.17;;
69325;SDS011;56471;53.508;49.252;2022-09-09T05:13:52;2.40;;;2.05;;
69325;SDS011;56471;53.508;49.252;2022-09-09T05:16:18;4.28;;;2.10;;
69325;SDS011;56471;53.508;49.252;2022-09-09T05:18:45;3.60;;;2.20;;
69325;SDS011;56471;53.508;49.252;2022-09-09T05:21:15;2.25;;;2.00;;
69325;SDS011;56471;53.508;49.252;2022-09-09T05:23:41;3.72;;;2.00;;
69325;SDS011;56471;53.508;49.252;2022-09-09T05:26:09;2.75;;;1.90;;
69325;SDS011;56471;53.508;49.252;2022-09-09T05:28:38;2.33;;;2.00;;
69325;SDS011;56471;53.508;49.252;2022-09-09T05:31:05;2.03;;;1.70;;
69325;SDS011;56471;53.508;49.252;2022-09-09T05:36:15;2.58;;;1.80;;
69325;SDS011;56471;53.508;49.252;2022-09-09T05:38:42;2.63;;;1.88;;
69325;SDS011;56471;53.508;49.252;2022-09-09T05:41:09;2.67;;;2.03;;
69325;SDS011;56471;53.508;49.252;2022-09-09T05:43:40;3.13;;;1.88;;
69325;SDS011;56471;53.508;49.252;2022-09-09T05:46:09;2.10;;;1.90;;
69325;SDS011;56471;53.508;49.252;2022-09-09T05:48:45;1.98;;;1.73;;
69325;SDS011;56471;53.508;49.252;2022-09-09T05:51:15;2.28;;;1.80;;
69325;SDS011;56471;53.508;49.252;2022-09-09T05:53:44;2.38;;;1.90;;
69325;SDS011;56471;53.508;49.252;2022-09-09T05:56:12;3.50;;;2.20;;
69325;SDS011;56471;53.508;49.252;2022-09-09T05:58:42;2.60;;;1.77;;
69325;SDS011;56471;53.508;49.252;2022-09-09T06:01:19;1.73;;;1.63;;
69325;SDS011;56471;53.508;49.252;2022-09-09T06:03:52;1.70;;;1.60;;
69325;SDS011;56471;53.508;49.252;2022-09-09T06:06:19;4.03;;;1.90;;
69325;SDS011;56471;53.508;49.252;2022-09-09T06:08:46;2.08;;;1.70;;
69325;SDS011;56471;53.508;49.252;2022-09-09T06:11:13;2.20;;;1.77;;
69325;SDS011;56471;53.508;49.252;2022-09-09T06:13:41;2.95;;;1.73;;
69325;SDS011;56471;53.508;49.252;2022-09-09T06:16:11;2.05;;;1.83;;
69325;SDS011;56471;53.508;49.252;2022-09-09T06:18:38;1.67;;;1.58;;
69325;SDS011;56471;53.508;49.252;2022-09-09T06:21:06;2.15;;;1.55;;
69325;SDS011;56471;53.508;49.252;2022-09-09T06:23:34;2.33;;;1.30;;
69325;SDS011;56471;53.508;49.252;2022-09-09T06:26:03;1.60;;;1.40;;
69325;SDS011;56471;53.508;49.252;2022-09-09T06:28:31;2.60;;;1.70;;
69325;SDS011;56471;53.508;49.252;2022-09-09T06:31:01;2.72;;;1.88;;
69325;SDS011;56471;53.508;49.252;2022-09-09T06:33:36;2.58;;;1.50;;
69325;SDS011;56471;53.508;49.252;2022-09-09T06:36:27;1.60;;;1.50;;
69325;SDS011;56471;53.508;49.252;2022-09-09T06:38:53;1.95;;;1.60;;
69325;SDS011;56471;53.508;49.252;2022-09-09T06:41:21;3.85;;;1.40;;
69325;SDS011;56471;53.508;49.252;2022-09-09T06:43:48;1.50;;;1.40;;
69325;SDS011;56471;53.508;49.252;2022-09-09T06:46:15;2.47;;;1.40;;
69325;SDS011;56471;53.508;49.252;2022-09-09T06:48:43;1.50;;;1.40;;
69325;SDS011;56471;53.508;49.252;2022-09-09T06:51:51;2.67;;;1.50;;
69325;SDS011;56471;53.508;49.252;2022-09-09T06:54:07;2.40;;;1.20;;
69325;SDS011;56471;53.508;49.252;2022-09-09T06:56:35;2.25;;;1.20;;
69325;SDS011;56471;53.508;49.252;2022-09-09T06:59:03;2.17;;;1.20;;
69325;SDS011;56471;53.508;49.252;2022-09-09T07:01:34;3.08;;;1.25;;
69325;SDS011;56471;53.508;49.252;2022-09-09T07:04:02;1.30;;;1.10;;
69325;SDS011;56471;53.508;49.252;2022-09-09T07:06:33;1.13;;;1.02;;
69325;SDS011;56471;53.508;49.252;2022-09-09T07:09:01;1.25;;;1.15;;
69325;SDS011;56471;53.508;49.252;2022-09-09T07:11:30;1.80;;;1.00;;
69325;SDS011;56471;53.508;49.252;2022-09-09T07:13:58;1.45;;;0.88;;
69325;SDS011;56471;53.508;49.252;2022-09-09T07:16:25;1.10;;;0.90;;
69325;SDS011;56471;53.508;49.252;2022-09-09T07:18:52;1.50;;;0.90;;
69325;SDS011;56471;53.508;49.252;2022-09-09T07:21:22;1.95;;;1.15;;
69325;SDS011;56471;53.508;49.252;2022-09-09T07:23:49;1.58;;;1.00;;
69325;SDS011;56471;53.508;49.252;2022-09-09T07:26:17;5.22;;;1.05;;
69325;SDS011;56471;53.508;49.252;2022-09-09T07:28:47;1.95;;;0.80;;
69325;SDS011;56471;53.508;49.252;2022-09-09T07:31:17;0.80;;;0.80;;
69325;SDS011;56471;53.508;49.252;2022-09-09T07:33:45;1.20;;;1.10;;
69325;SDS011;56471;53.508;49.252;2022-09-09T07:36:19;2.25;;;0.93;;
69325;SDS011;56471;53.508;49.252;2022-09-09T07:38:48;1.27;;;0.98;;
69325;SDS011;56471;53.508;49.252;2022-09-09T07:41:20;0.80;;;0.80;;
69325;SDS011;56471;53.508;49.252;2022-09-09T07:43:51;1.00;;;0.90;;
69325;SDS011;56471;53.508;49.252;2022-09-09T07:46:19;1.10;;;0.90;;
69325;SDS011;56471;53.508;49.252;2022-09-09T07:48:47;1.13;;;1.02;;
69325;SDS011;56471;53.508;49.252;2022-09-09T07:51:16;1.42;;;0.80;;
69325;SDS011;56471;53.508;49.252;2022-09-09T07:53:44;0.80;;;0.80;;
69325;SDS011;56471;53.508;49.252;2022-09-09T07:56:12;0.82;;;0.82;;
69325;SDS011;56471;53.508;49.252;2022-09-09T07:58:39;1.00;;;1.00;;
69325;SDS011;56471;53.508;49.252;2022-09-09T08:01:07;0.80;;;0.80;;
69325;SDS011;56471;53.508;49.252;2022-09-09T08:03:35;0.80;;;0.70;;
69325;SDS011;56471;53.508;49.252;2022-09-09T08:06:02;2.80;;;0.80;;
69325;SDS011;56471;53.508;49.252;2022-09-09T08:08:29;1.67;;;0.77;;
69325;SDS011;56471;53.508;49.252;2022-09-09T08:11:02;0.80;;;0.80;;
69325;SDS011;56471;53.508;49.252;2022-09-09T08:13:30;0.70;;;0.70;;
69325;SDS011;56471;53.508;49.252;2022-09-09T08:16:03;3.10;;;1.00;;
69325;SDS011;56471;53.508;49.252;2022-09-09T08:18:30;1.02;;;0.52;;
69325;SDS011;56471;53.508;49.252;2022-09-09T08:20:56;0.52;;;0.50;;
69325;SDS011;56471;53.508;49.252;2022-09-09T08:23:22;0.50;;;0.50;;
69325;SDS011;56471;53.508;49.252;2022-09-09T08:25:48;0.60;;;0.50;;
69325;SDS011;56471;53.508;49.252;2022-09-09T08:28:15;0.98;;;0.70;;
69325;SDS011;56471;53.508;49.252;2022-09-09T08:30:41;2.00;;;0.50;;
69325;SDS011;56471;53.508;49.252;2022-09-09T08:33:08;0.40;;;0.40;;
69325;SDS011;56471;53.508;49.252;2022-09-09T08:35:34;0.73;;;0.60;;
69325;SDS011;56471;53.508;49.252;2022-09-09T08:38:00;0.52;;;0.52;;
69325;SDS011;56471;53.508;49.252;2022-09-09T08:40:28;0.40;;;0.40;;
69325;SDS011;56471;53.508;49.252;2022-09-09T08:42:58;0.50;;;0.50;;
69325;SDS011;56471;53.508;49.252;2022-09-09T08:45:36;0.50;;;0.47;;
69325;SDS011;56471;53.508;49.252;2022-09-09T08:51:00;1.15;;;0.50;;
69325;SDS011;56471;53.508;49.252;2022-09-09T08:53:33;0.47;;;0.47;;
69325;SDS011;56471;53.508;49.252;2022-09-09T08:56:14;0.40;;;0.40;;
69325;SDS011;56471;53.508;49.252;2022-09-09T08:58:47;0.60;;;0.60;;
69325;SDS011;56471;53.508;49.252;2022-09-09T09:12:06;0.40;;;0.40;;
69325;SDS011;56471;53.508;49.252;2022-09-09T09:14:40;0.40;;;0.40;;
69325;SDS011;56471;53.508;49.252;2022-09-09T09:17:21;0.93;;;0.30;;
69325;SDS011;56471;53.508;49.252;2022-09-09T09:19:50;0.40;;;0.40;;
69325;SDS011;56471;53.508;49.252;2022-09-09T09:27:31;0.20;;;0.20;;
69325;SDS011;56471;53.508;49.252;2022-09-09T09:30:00;0.25;;;0.25;;
69325;SDS011;56471;53.508;49.252;2022-09-09T09:32:38;0.55;;;0.30;;
69325;SDS011;56471;53.508;49.252;2022-09-09T09:35:16;0.30;;;0.30;;
69325;SDS011;56471;53.508;49.252;2022-09-09T09:37:42;0.20;;;0.20;;
69325;SDS011;56471;53.508;49.252;2022-09-09T09:40:16;0.30;;;0.30;;
69325;SDS011;56471;53.508;49.252;2022-09-09T09:42:48;0.25;;;0.20;;
69325;SDS011;56471;53.508;49.252;2022-09-09T09:48:09;0.30;;;0.30;;
69325;SDS011;56471;53.508;49.252;2022-09-09T09:50:46;0.20;;;0.20;;
69325;SDS011;56471;53.508;49.252;2022-09-09T09:53:18;0.20;;;0.20;;
69325;SDS011;56471;53.508;49.252;2022-09-09T09:56:31;0.30;;;0.30;;
69325;SDS011;56471;53.508;49.252;2022-09-09T10:01:04;7.88;;;0.82;;
69325;SDS011;56471;53.508;49.252;2022-09-09T10:03:31;3.33;;;0.38;;
69325;SDS011;56471;53.508;49.252;2022-09-09T10:06:02;0.50;;;0.30;;
69325;SDS011;56471;53.508;49.252;2022-09-09T10:08:29;11.68;;;0.40;;
69325;SDS011;56471;53.508;49.252;2022-09-09T10:11:04;18.38;;;1.08;;
69325;SDS011;56471;53.508;49.252;2022-09-09T10:34:57;3.15;;;0.40;;
69325;SDS011;56471;53.508;49.252;2022-09-09T10:43:09;1.25;;;0.40;;
69325;SDS011;56471;53.508;49.252;2022-09-09T10:51:30;0.40;;;0.40;;
69325;SDS011;56471;53.508;49.252;2022-09-09T10:56:31;4.93;;;0.50;;
69325;SDS011;56471;53.508;49.252;2022-09-09T11:01:40;0.38;;;0.30;;
69325;SDS011;56471;53.508;49.252;2022-09-09T11:04:16;0.30;;;0.30;;
69325;SDS011;56471;53.508;49.252;2022-09-09T11:06:52;1.38;;;0.30;;
69325;SDS011;56471;53.508;49.252;2022-09-09T11:09:27;2.65;;;0.30;;
69325;SDS011;56471;53.508;49.252;2022-09-09T11:11:57;1.10;;;0.25;;
69325;SDS011;56471;53.508;49.252;2022-09-09T11:14:29;3.03;;;0.50;;
69325;SDS011;56471;53.508;49.252;2022-09-09T11:17:00;0.52;;;0.20;;
69325;SDS011;56471;53.508;49.252;2022-09-09T11:22:05;0.38;;;0.38;;
69325;SDS011;56471;53.508;49.252;2022-09-09T11:24:40;0.20;;;0.20;;
69325;SDS011;56471;53.508;49.252;2022-09-09T11:40:30;1.00;;;0.30;;
69325;SDS011;56471;53.508;49.252;2022-09-09T11:43:01;1.10;;;0.30;;
69325;SDS011;56471;53.508;49.252;2022-09-09T11:45:38;0.93;;;0.30;;
69325;SDS011;56471;53.508;49.252;2022-09-09T11:48:05;0.25;;;0.25;;
69325;SDS011;56471;53.508;49.252;2022-09-09T11:51:01;0.20;;;0.20;;
69325;SDS011;56471;53.508;49.252;2022-09-09T11:53:28;0.95;;;0.25;;
69325;SDS011;56471;53.508;49.252;2022-09-09T11:56:04;0.50;;;0.30;;
69325;SDS011;56471;53.508;49.252;2022-09-09T11:58:39;0.20;;;0.20;;
69325;SDS011;56471;53.508;49.252;2022-09-09T12:04:06;0.40;;;0.30;;
69325;SDS011;56471;53.508;49.252;2022-09-09T12:06:52;0.20;;;0.20;;
69325;SDS011;56471;53.508;49.252;2022-09-09T12:15:17;0.20;;;0.20;;
69325;SDS011;56471;53.508;49.252;2022-09-09T12:17:41;0.55;;;0.20;;
69325;SDS011;56471;53.508;49.252;2022-09-09T12:23:10;1.65;;;0.20;;
69325;SDS011;56471;53.508;49.252;2022-09-09T12:25:47;0.20;;;0.20;;
69325;SDS011;56471;53.508;49.252;2022-09-09T12:28:52;0.25;;;0.20;;
69325;SDS011;56471;53.508;49.252;2022-09-09T12:34:28;1.17;;;0.20;;
69325;SDS011;56471;53.508;49.252;2022-09-09T12:37:04;0.28;;;0.28;;
69325;SDS011;56471;53.508;49.252;2022-09-09T12:39:44;0.20;;;0.20;;
69325;SDS011;56471;53.508;49.252;2022-09-09T12:42:18;0.20;;;0.20;;
69325;SDS011;56471;53.508;49.252;2022-09-09T12:44:51;0.20;;;0.20;;
69325;SDS011;56471;53.508;49.252;2022-09-09T12:47:19;0.30;;;0.20;;
69325;SDS011;56471;53.508;49.252;2022-09-09T12:49:48;0.20;;;0.20;;
69325;SDS011;56471;53.508;49.252;2022-09-09T12:54:58;0.20;;;0.20;;
69325;SDS011;56471;53.508;49.252;2022-09-09T12:57:29;0.40;;;0.20;;
69325;SDS011;56471;53.508;49.252;2022-09-09T13:00:07;0.20;;;0.20;;
69325;SDS011;56471;53.508;49.252;2022-09-09T13:02:54;0.20;;;0.20;;
69325;SDS011;56471;53.508;49.252;2022-09-09T13:05:23;0.20;;;0.20;;
69325;SDS011;56471;53.508;49.252;2022-09-09T13:08:03;0.22;;;0.20;;
69325;SDS011;56471;53.508;49.252;2022-09-09T13:10:46;0.40;;;0.30;;
69325;SDS011;56471;53.508;49.252;2022-09-09T13:13:21;0.20;;;0.20;;
69325;SDS011;56471;53.508;49.252;2022-09-09T13:15:58;0.10;;;0.10;;
69325;SDS011;56471;53.508;49.252;2022-09-09T13:18:29;0.30;;;0.28;;
69325;SDS011;56471;53.508;49.252;2022-09-09T13:20:58;0.30;;;0.30;;
69325;SDS011;56471;53.508;49.252;2022-09-09T13:23:29;0.20;;;0.20;;
69325;SDS011;56471;53.508;49.252;2022-09-09T13:25:58;0.20;;;0.20;;
69325;SDS011;56471;53.508;49.252;2022-09-09T13:28:27;0.30;;;0.30;;
69325;SDS011;56471;53.508;49.252;2022-09-09T13:31:19;0.20;;;0.20;;
69325;SDS011;56471;53.508;49.252;2022-09-09T13:33:46;0.20;;;0.20;;
69325;SDS011;56471;53.508;49.252;2022-09-09T13:36:12;0.30;;;0.30;;
69325;SDS011;56471;53.508;49.252;2022-09-09T13:41:20;0.38;;;0.22;;
69325;SDS011;56471;53.508;49.252;2022-09-09T13:44:26;0.73;;;0.30;;
69325;SDS011;56471;53.508;49.252;2022-09-09T13:47:04;0.43;;;0.30;;
69325;SDS011;56471;53.508;49.252;2022-09-09T13:49:50;1.55;;;0.35;;
69325;SDS011;56471;53.508;49.252;2022-09-09T13:52:16;0.77;;;0.30;;
69325;SDS011;56471;53.508;49.252;2022-09-09T13:54:50;0.20;;;0.20;;
69325;SDS011;56471;53.508;49.252;2022-09-09T13:57:17;0.30;;;0.30;;
69325;SDS011;56471;53.508;49.252;2022-09-09T13:59:45;0.40;;;0.28;;
69325;SDS011;56471;53.508;49.252;2022-09-09T14:02:23;0.30;;;0.20;;
69325;SDS011;56471;53.508;49.252;2022-09-09T14:04:49;1.48;;;0.40;;
69325;SDS011;56471;53.508;49.252;2022-09-09T14:07:16;0.30;;;0.20;;
69325;SDS011;56471;53.508;49.252;2022-09-09T14:09:43;1.80;;;0.40;;
69325;SDS011;56471;53.508;49.252;2022-09-09T14:12:11;1.35;;;0.40;;
69325;SDS011;56471;53.508;49.252;2022-09-09T14:14:38;0.30;;;0.30;;
69325;SDS011;56471;53.508;49.252;2022-09-09T14:17:04;0.68;;;0.40;;
69325;SDS011;56471;53.508;49.252;2022-09-09T14:19:30;3.63;;;0.55;;
69325;SDS011;56471;53.508;49.252;2022-09-09T14:21:56;1.48;;;0.30;;
69325;SDS011;56471;53.508;49.252;2022-09-09T14:24:23;1.65;;;0.57;;
69325;SDS011;56471;53.508;49.252;2022-09-09T14:26:49;2.83;;;0.80;;
69325;SDS011;56471;53.508;49.252;2022-09-09T14:29:14;1.17;;;0.75;;
69325;SDS011;56471;53.508;49.252;2022-09-09T14:31:40;2.35;;;0.80;;
69325;SDS011;56471;53.508;49.252;2022-09-09T14:34:06;2.08;;;0.70;;
69325;SDS011;56471;53.508;49.252;2022-09-09T14:36:32;2.28;;;0.80;;
69325;SDS011;56471;53.508;49.252;2022-09-09T14:38:58;3.40;;;0.80;;
69325;SDS011;56471;53.508;49.252;2022-09-09T14:41:24;1.40;;;0.80;;
69325;SDS011;56471;53.508;49.252;2022-09-09T14:43:50;4.85;;;1.20;;
69325;SDS011;56471;53.508;49.252;2022-09-09T14:46:17;9.60;;;1.55;;
69325;SDS011;56471;53.508;49.252;2022-09-09T14:48:44;3.92;;;1.30;;
69325;SDS011;56471;53.508;49.252;2022-09-09T14:51:11;5.13;;;1.20;;
69325;SDS011;56471;53.508;49.252;2022-09-09T14:53:40;840.78;;;555.60;;
69325;SDS011;56471;53.508;49.252;2022-09-09T14:56:07;754.30;;;533.05;;
69325;SDS011;56471;53.508;49.252;2022-09-09T14:58:35;435.45;;;292.75;;
69325;SDS011;56471;53.508;49.252;2022-09-09T15:01:02;221.15;;;131.63;;
69325;SDS011;56471;53.508;49.252;2022-09-09T15:03:30;128.40;;;74.95;;
69325;SDS011;56471;53.508;49.252;2022-09-09T15:05:55;81.53;;;44.47;;
69325;SDS011;56471;53.508;49.252;2022-09-09T15:08:23;270.63;;;170.00;;
69325;SDS011;56471;53.508;49.252;2022-09-09T15:10:50;190.43;;;120.90;;
69325;SDS011;56471;53.508;49.252;2022-09-09T15:13:15;844.78;;;616.60;;
69325;SDS011;56471;53.508;49.252;2022-09-09T15:15:42;496.95;;;349.75;;
69325;SDS011;56471;53.508;49.252;2022-09-09T15:18:09;274.70;;;175.60;;
69325;SDS011;56471;53.508;49.252;2022-09-09T15:20:34;161.80;;;100.47;;
69325;SDS011;56471;53.508;49.252;2022-09-09T15:23:02;111.25;;;65.38;;
69325;SDS011;56471;53.508;49.252;2022-09-09T15:25:28;85.72;;;46.38;;
69325;SDS011;56471;53.508;49.252;2022-09-09T15:27:54;61.40;;;33.63;;
69325;SDS011;56471;53.508;49.252;2022-09-09T15:30:21;44.00;;;24.58;;
69325;SDS011;56471;53.508;49.252;2022-09-09T15:32:46;32.40;;;18.02;;
69325;SDS011;56471;53.508;49.252;2022-09-09T15:35:12;22.80;;;12.98;;
69325;SDS011;56471;53.508;49.252;2022-09-09T15:37:38;20.92;;;11.25;;
69325;SDS011;56471;53.508;49.252;2022-09-09T15:40:03;15.82;;;9.18;;
69325;SDS011;56471;53.508;49.252;2022-09-09T15:42:30;12.50;;;7.68;;
69325;SDS011;56471;53.508;49.252;2022-09-09T15:44:56;10.75;;;6.47;;
69325;SDS011;56471;53.508;49.252;2022-09-09T15:47:22;9.98;;;5.97;;
69325;SDS011;56471;53.508;49.252;2022-09-09T15:49:47;7.18;;;4.72;;
69325;SDS011;56471;53.508;49.252;2022-09-09T15:52:13;6.18;;;4.25;;
69325;SDS011;56471;53.508;49.252;2022-09-09T15:54:39;6.80;;;3.90;;
69325;SDS011;56471;53.508;49.252;2022-09-09T15:57:05;5.50;;;3.55;;
69325;SDS011;56471;53.508;49.252;2022-09-09T15:59:33;5.90;;;3.17;;
69325;SDS011;56471;53.508;49.252;2022-09-09T16:01:59;3.53;;;2.40;;
69325;SDS011;56471;53.508;49.252;2022-09-09T16:04:25;3.53;;;2.33;;
69325;SDS011;56471;53.508;49.252;2022-09-09T16:06:59;2.85;;;2.05;;
69325;SDS011;56471;53.508;49.252;2022-09-09T16:09:29;2.97;;;2.00;;
69325;SDS011;56471;53.508;49.252;2022-09-09T16:11:56;2.53;;;1.60;;
69325;SDS011;56471;53.508;49.252;2022-09-09T16:14:25;2.40;;;1.50;;
69325;SDS011;56471;53.508;49.252;2022-09-09T16:16:52;1.23;;;1.10;;
69325;SDS011;56471;53.508;49.252;2022-09-09T16:19:18;1.67;;;1.20;;
69325;SDS011;56471;53.508;49.252;2022-09-09T16:21:45;1.38;;;1.00;;
69325;SDS011;56471;53.508;49.252;2022-09-09T16:24:13;1.10;;;0.88;;
69325;SDS011;56471;53.508;49.252;2022-09-09T16:26:42;1.25;;;0.80;;
69325;SDS011;56471;53.508;49.252;2022-09-09T16:29:13;1.30;;;0.90;;
69325;SDS011;56471;53.508;49.252;2022-09-09T16:31:40;2.45;;;1.00;;
69325;SDS011;56471;53.508;49.252;2022-09-09T16:34:07;1.50;;;0.90;;
69325;SDS011;56471;53.508;49.252;2022-09-09T16:36:34;4.47;;;0.93;;
69325;SDS011;56471;53.508;49.252;2022-09-09T16:39:03;1.98;;;1.00;;
69325;SDS011;56471;53.508;49.252;2022-09-09T16:41:30;587.45;;;410.63;;
69325;SDS011;56471;53.508;49.252;2022-09-09T16:43:57;301.60;;;184.43;;
69325;SDS011;56471;53.508;49.252;2022-09-09T16:46:25;143.10;;;84.63;;
69325;SDS011;56471;53.508;49.252;2022-09-09T16:48:52;94.47;;;50.40;;
69325;SDS011;56471;53.508;49.252;2022-09-09T16:51:39;61.05;;;30.88;;
69325;SDS011;56471;53.508;49.252;2022-09-09T16:54:08;34.70;;;17.67;;
69325;SDS011;56471;53.508;49.252;2022-09-09T16:56:35;20.00;;;11.02;;
69325;SDS011;56471;53.508;49.252;2022-09-09T16:59:11;15.70;;;8.32;;
69325;SDS011;56471;53.508;49.252;2022-09-09T17:01:39;10.23;;;6.28;;
69325;SDS011;56471;53.508;49.252;2022-09-09T17:04:10;8.68;;;4.88;;
69325;SDS011;56471;53.508;49.252;2022-09-09T17:06:38;6.13;;;4.03;;
69325;SDS011;56471;53.508;49.252;2022-09-09T17:09:07;5.13;;;2.95;;
69325;SDS011;56471;53.508;49.252;2022-09-09T17:11:35;4.72;;;2.25;;
69325;SDS011;56471;53.508;49.252;2022-09-09T17:14:02;468.08;;;261.95;;
69325;SDS011;56471;53.508;49.252;2022-09-09T17:16:30;447.05;;;245.65;;
69325;SDS011;56471;53.508;49.252;2022-09-09T17:18:59;219.60;;;109.32;;
69325;SDS011;56471;53.508;49.252;2022-09-09T17:21:26;127.28;;;60.78;;
69325;SDS011;56471;53.508;49.252;2022-09-09T17:23:54;90.05;;;41.85;;